sensor_id;sensor_type;location;lat;lon;timestamp;P1;durP1;ratioP1;P2;durP2;ratioP2
74959;SDS011;63518;49.572;1.106;2024-01-30T00:02:15;463.17;;;297.77;;
74959;SDS011;63518;49.572;1.106;2024-01-30T00:04:42;459.17;;;292.95;;
74959;SDS011;63518;49.572;1.106;2024-01-30T00:07:09;459.42;;;289.85;;
74959;SDS011;63518;49.572;1.106;2024-01-30T00:09:37;482.67;;;315.00;;
74959;SDS011;63518;49.572;1.106;2024-01-30T00:12:06;468.77;;;300.70;;
74959;SDS011;63518;49.572;1.106;2024-01-30T00:14:33;483.98;;;319.48;;
74959;SDS011;63518;49.572;1.106;2024-01-30T00:16:59;480.63;;;316.63;;
74959;SDS011;63518;49.572;1.106;2024-01-30T00:19:26;476.52;;;312.58;;
74959;SDS011;63518;49.572;1.106;2024-01-30T00:21:53;471.83;;;308.20;;
74959;SDS011;63518;49.572;1.106;2024-01-30T00:24:20;467.77;;;305.15;;
74959;SDS011;63518;49.572;1.106;2024-01-30T00:26:46;474.63;;;309.25;;
74959;SDS011;63518;49.572;1.106;2024-01-30T00:29:13;467.98;;;304.33;;
74959;SDS011;63518;49.572;1.106;2024-01-30T00:31:45;466.33;;;297.42;;
74959;SDS011;63518;49.572;1.106;2024-01-30T00:34:12;481.40;;;316.10;;
74959;SDS011;63518;49.572;1.106;2024-01-30T00:36:39;471.20;;;302.15;;
74959;SDS011;63518;49.572;1.106;2024-01-30T00:39:06;474.30;;;307.95;;
74959;SDS011;63518;49.572;1.106;2024-01-30T00:41:35;483.80;;;318.88;;
74959;SDS011;63518;49.572;1.106;2024-01-30T00:44:02;473.92;;;307.67;;
74959;SDS011;63518;49.572;1.106;2024-01-30T00:46:28;459.42;;;288.15;;
74959;SDS011;63518;49.572;1.106;2024-01-30T00:48:55;449.65;;;279.10;;
74959;SDS011;63518;49.572;1.106;2024-01-30T00:51:22;457.88;;;284.38;;
74959;SDS011;63518;49.572;1.106;2024-01-30T00:53:49;454.15;;;283.15;;
74959;SDS011;63518;49.572;1.106;2024-01-30T00:56:15;464.67;;;291.77;;
74959;SDS011;63518;49.572;1.106;2024-01-30T00:58:44;466.17;;;291.15;;
74959;SDS011;63518;49.572;1.106;2024-01-30T01:01:11;477.30;;;298.65;;
74959;SDS011;63518;49.572;1.106;2024-01-30T01:03:38;468.52;;;294.58;;
74959;SDS011;63518;49.572;1.106;2024-01-30T01:06:07;471.33;;;290.65;;
74959;SDS011;63518;49.572;1.106;2024-01-30T01:08:34;477.92;;;299.77;;
74959;SDS011;63518;49.572;1.106;2024-01-30T01:11:00;470.23;;;297.92;;
74959;SDS011;63518;49.572;1.106;2024-01-30T01:13:27;467.10;;;294.02;;
74959;SDS011;63518;49.572;1.106;2024-01-30T01:15:54;474.77;;;302.65;;
74959;SDS011;63518;49.572;1.106;2024-01-30T01:18:21;468.48;;;294.00;;
74959;SDS011;63518;49.572;1.106;2024-01-30T01:20:48;460.95;;;286.35;;
74959;SDS011;63518;49.572;1.106;2024-01-30T01:23:15;478.95;;;305.70;;
74959;SDS011;63518;49.572;1.106;2024-01-30T01:25:42;470.27;;;294.63;;
74959;SDS011;63518;49.572;1.106;2024-01-30T01:28:08;493.63;;;320.98;;
74959;SDS011;63518;49.572;1.106;2024-01-30T01:30:35;489.90;;;318.90;;
74959;SDS011;63518;49.572;1.106;2024-01-30T01:33:02;473.38;;;293.35;;
74959;SDS011;63518;49.572;1.106;2024-01-30T01:35:29;491.77;;;314.90;;
74959;SDS011;63518;49.572;1.106;2024-01-30T01:37:56;484.05;;;310.92;;
74959;SDS011;63518;49.572;1.106;2024-01-30T01:40:24;487.98;;;315.98;;
74959;SDS011;63518;49.572;1.106;2024-01-30T01:42:51;485.63;;;308.90;;
74959;SDS011;63518;49.572;1.106;2024-01-30T01:45:19;495.80;;;321.38;;
74959;SDS011;63518;49.572;1.106;2024-01-30T01:47:48;489.85;;;317.52;;
74959;SDS011;63518;49.572;1.106;2024-01-30T01:50:19;489.48;;;312.75;;
74959;SDS011;63518;49.572;1.106;2024-01-30T01:52:48;488.25;;;310.20;;
74959;SDS011;63518;49.572;1.106;2024-01-30T01:55:16;470.48;;;298.17;;
74959;SDS011;63518;49.572;1.106;2024-01-30T01:57:48;486.10;;;317.48;;
74959;SDS011;63518;49.572;1.106;2024-01-30T02:00:15;465.55;;;293.25;;
74959;SDS011;63518;49.572;1.106;2024-01-30T02:02:43;448.50;;;280.08;;
74959;SDS011;63518;49.572;1.106;2024-01-30T02:05:11;459.70;;;283.92;;
74959;SDS011;63518;49.572;1.106;2024-01-30T02:07:38;479.63;;;303.23;;
74959;SDS011;63518;49.572;1.106;2024-01-30T02:10:07;475.45;;;299.27;;
74959;SDS011;63518;49.572;1.106;2024-01-30T02:12:34;437.08;;;273.08;;
74959;SDS011;63518;49.572;1.106;2024-01-30T02:15:01;470.63;;;305.38;;
74959;SDS011;63518;49.572;1.106;2024-01-30T02:17:28;464.02;;;294.48;;
74959;SDS011;63518;49.572;1.106;2024-01-30T02:19:54;498.90;;;325.73;;
74959;SDS011;63518;49.572;1.106;2024-01-30T02:22:22;493.10;;;321.50;;
74959;SDS011;63518;49.572;1.106;2024-01-30T02:24:49;501.42;;;326.95;;
74959;SDS011;63518;49.572;1.106;2024-01-30T02:27:16;484.27;;;308.25;;
74959;SDS011;63518;49.572;1.106;2024-01-30T02:29:42;483.30;;;305.48;;
74959;SDS011;63518;49.572;1.106;2024-01-30T02:32:09;488.05;;;308.48;;
74959;SDS011;63518;49.572;1.106;2024-01-30T02:34:36;492.88;;;318.73;;
74959;SDS011;63518;49.572;1.106;2024-01-30T02:37:03;474.15;;;301.83;;
74959;SDS011;63518;49.572;1.106;2024-01-30T02:39:29;473.17;;;295.38;;
74959;SDS011;63518;49.572;1.106;2024-01-30T02:41:56;496.33;;;323.65;;
74959;SDS011;63518;49.572;1.106;2024-01-30T02:44:23;499.80;;;325.00;;
74959;SDS011;63518;49.572;1.106;2024-01-30T02:46:50;478.45;;;297.33;;
74959;SDS011;63518;49.572;1.106;2024-01-30T02:49:17;474.83;;;289.52;;
74959;SDS011;63518;49.572;1.106;2024-01-30T02:51:43;497.65;;;322.83;;
74959;SDS011;63518;49.572;1.106;2024-01-30T02:54:10;442.40;;;277.25;;
74959;SDS011;63518;49.572;1.106;2024-01-30T02:56:37;475.35;;;304.13;;
74959;SDS011;63518;49.572;1.106;2024-01-30T02:59:03;497.25;;;328.48;;
74959;SDS011;63518;49.572;1.106;2024-01-30T03:01:30;503.77;;;326.30;;
74959;SDS011;63518;49.572;1.106;2024-01-30T03:03:58;492.08;;;312.92;;
74959;SDS011;63518;49.572;1.106;2024-01-30T03:06:25;504.25;;;328.70;;
74959;SDS011;63518;49.572;1.106;2024-01-30T03:08:51;495.38;;;319.15;;
74959;SDS011;63518;49.572;1.106;2024-01-30T03:11:18;501.67;;;321.60;;
74959;SDS011;63518;49.572;1.106;2024-01-30T03:13:45;494.42;;;316.75;;
74959;SDS011;63518;49.572;1.106;2024-01-30T03:16:12;404.00;;;244.55;;
74959;SDS011;63518;49.572;1.106;2024-01-30T03:18:38;415.75;;;253.73;;
74959;SDS011;63518;49.572;1.106;2024-01-30T03:21:05;464.98;;;288.80;;
74959;SDS011;63518;49.572;1.106;2024-01-30T03:23:32;496.27;;;320.58;;
74959;SDS011;63518;49.572;1.106;2024-01-30T03:25:58;501.52;;;323.92;;
74959;SDS011;63518;49.572;1.106;2024-01-30T03:28:25;505.98;;;326.35;;
74959;SDS011;63518;49.572;1.106;2024-01-30T03:30:52;508.92;;;332.80;;
74959;SDS011;63518;49.572;1.106;2024-01-30T03:33:19;519.72;;;342.08;;
74959;SDS011;63518;49.572;1.106;2024-01-30T03:35:46;519.28;;;340.88;;
74959;SDS011;63518;49.572;1.106;2024-01-30T03:38:12;514.95;;;337.10;;
74959;SDS011;63518;49.572;1.106;2024-01-30T03:40:39;515.58;;;332.55;;
74959;SDS011;63518;49.572;1.106;2024-01-30T03:43:06;511.40;;;332.38;;
74959;SDS011;63518;49.572;1.106;2024-01-30T03:45:32;477.92;;;299.45;;
74959;SDS011;63518;49.572;1.106;2024-01-30T03:47:59;509.00;;;332.50;;
74959;SDS011;63518;49.572;1.106;2024-01-30T03:50:26;506.10;;;327.75;;
74959;SDS011;63518;49.572;1.106;2024-01-30T03:52:54;510.65;;;333.35;;
74959;SDS011;63518;49.572;1.106;2024-01-30T03:55:21;520.70;;;347.02;;
74959;SDS011;63518;49.572;1.106;2024-01-30T03:57:47;523.05;;;344.13;;
74959;SDS011;63518;49.572;1.106;2024-01-30T04:00:14;514.35;;;333.48;;
74959;SDS011;63518;49.572;1.106;2024-01-30T04:02:41;514.72;;;339.13;;
74959;SDS011;63518;49.572;1.106;2024-01-30T04:05:08;433.27;;;262.63;;
74959;SDS011;63518;49.572;1.106;2024-01-30T04:07:35;413.27;;;244.85;;
74959;SDS011;63518;49.572;1.106;2024-01-30T04:10:02;434.42;;;254.38;;
74959;SDS011;63518;49.572;1.106;2024-01-30T04:12:32;459.48;;;282.42;;
74959;SDS011;63518;49.572;1.106;2024-01-30T04:14:58;481.27;;;299.02;;
74959;SDS011;63518;49.572;1.106;2024-01-30T04:17:25;414.83;;;246.70;;
74959;SDS011;63518;49.572;1.106;2024-01-30T04:19:52;419.77;;;249.15;;
74959;SDS011;63518;49.572;1.106;2024-01-30T04:22:19;395.25;;;235.10;;
74959;SDS011;63518;49.572;1.106;2024-01-30T04:24:46;417.70;;;246.93;;
74959;SDS011;63518;49.572;1.106;2024-01-30T04:27:13;414.77;;;243.55;;
74959;SDS011;63518;49.572;1.106;2024-01-30T04:29:39;438.02;;;255.40;;
74959;SDS011;63518;49.572;1.106;2024-01-30T04:32:06;450.38;;;286.17;;
74959;SDS011;63518;49.572;1.106;2024-01-30T04:34:33;430.02;;;259.88;;
74959;SDS011;63518;49.572;1.106;2024-01-30T04:37:00;448.05;;;285.52;;
74959;SDS011;63518;49.572;1.106;2024-01-30T04:39:26;392.13;;;238.80;;
74959;SDS011;63518;49.572;1.106;2024-01-30T04:41:53;386.10;;;233.98;;
74959;SDS011;63518;49.572;1.106;2024-01-30T04:44:20;382.45;;;233.90;;
74959;SDS011;63518;49.572;1.106;2024-01-30T04:46:47;420.55;;;262.67;;
74959;SDS011;63518;49.572;1.106;2024-01-30T04:49:14;402.13;;;248.60;;
74959;SDS011;63518;49.572;1.106;2024-01-30T04:51:41;384.77;;;235.43;;
74959;SDS011;63518;49.572;1.106;2024-01-30T04:54:08;384.90;;;242.93;;
74959;SDS011;63518;49.572;1.106;2024-01-30T04:56:34;415.58;;;256.13;;
74959;SDS011;63518;49.572;1.106;2024-01-30T04:59:02;441.67;;;278.58;;
74959;SDS011;63518;49.572;1.106;2024-01-30T05:01:29;450.23;;;270.83;;
74959;SDS011;63518;49.572;1.106;2024-01-30T05:03:56;506.33;;;331.08;;
74959;SDS011;63518;49.572;1.106;2024-01-30T05:06:26;486.92;;;313.05;;
74959;SDS011;63518;49.572;1.106;2024-01-30T05:08:53;463.40;;;287.85;;
74959;SDS011;63518;49.572;1.106;2024-01-30T05:11:20;407.23;;;249.50;;
74959;SDS011;63518;49.572;1.106;2024-01-30T05:13:47;401.13;;;244.73;;
74959;SDS011;63518;49.572;1.106;2024-01-30T05:16:13;368.48;;;228.52;;
74959;SDS011;63518;49.572;1.106;2024-01-30T05:18:40;390.60;;;236.88;;
74959;SDS011;63518;49.572;1.106;2024-01-30T05:21:07;384.60;;;235.45;;
74959;SDS011;63518;49.572;1.106;2024-01-30T05:23:33;426.75;;;255.18;;
74959;SDS011;63518;49.572;1.106;2024-01-30T05:26:00;369.88;;;229.07;;
74959;SDS011;63518;49.572;1.106;2024-01-30T05:28:28;395.27;;;239.25;;
74959;SDS011;63518;49.572;1.106;2024-01-30T05:30:56;408.63;;;258.50;;
74959;SDS011;63518;49.572;1.106;2024-01-30T05:33:23;404.70;;;254.25;;
74959;SDS011;63518;49.572;1.106;2024-01-30T05:35:50;422.38;;;269.30;;
74959;SDS011;63518;49.572;1.106;2024-01-30T05:38:20;382.25;;;242.82;;
74959;SDS011;63518;49.572;1.106;2024-01-30T05:40:47;388.42;;;243.43;;
74959;SDS011;63518;49.572;1.106;2024-01-30T05:43:14;436.15;;;280.10;;
74959;SDS011;63518;49.572;1.106;2024-01-30T05:45:41;481.30;;;317.95;;
74959;SDS011;63518;49.572;1.106;2024-01-30T05:48:08;471.65;;;305.38;;
74959;SDS011;63518;49.572;1.106;2024-01-30T05:50:34;485.13;;;316.73;;
74959;SDS011;63518;49.572;1.106;2024-01-30T05:53:01;515.42;;;343.92;;
74959;SDS011;63518;49.572;1.106;2024-01-30T05:55:28;492.92;;;325.85;;
74959;SDS011;63518;49.572;1.106;2024-01-30T05:57:55;507.20;;;347.50;;
74959;SDS011;63518;49.572;1.106;2024-01-30T06:00:21;517.10;;;359.00;;
74959;SDS011;63518;49.572;1.106;2024-01-30T06:02:48;518.50;;;356.73;;
74959;SDS011;63518;49.572;1.106;2024-01-30T06:05:15;510.70;;;349.80;;
74959;SDS011;63518;49.572;1.106;2024-01-30T06:07:42;495.63;;;341.65;;
74959;SDS011;63518;49.572;1.106;2024-01-30T06:10:09;445.63;;;297.30;;
74959;SDS011;63518;49.572;1.106;2024-01-30T06:12:35;463.42;;;304.50;;
74959;SDS011;63518;49.572;1.106;2024-01-30T06:15:02;511.65;;;353.48;;
74959;SDS011;63518;49.572;1.106;2024-01-30T06:17:29;480.48;;;325.13;;
74959;SDS011;63518;49.572;1.106;2024-01-30T06:19:56;474.05;;;318.33;;
74959;SDS011;63518;49.572;1.106;2024-01-30T06:22:23;485.35;;;333.48;;
74959;SDS011;63518;49.572;1.106;2024-01-30T06:24:50;476.08;;;328.67;;
74959;SDS011;63518;49.572;1.106;2024-01-30T06:27:16;418.25;;;285.90;;
74959;SDS011;63518;49.572;1.106;2024-01-30T06:29:44;450.80;;;306.90;;
74959;SDS011;63518;49.572;1.106;2024-01-30T06:32:10;404.90;;;276.85;;
74959;SDS011;63518;49.572;1.106;2024-01-30T06:34:37;391.70;;;265.25;;
74959;SDS011;63518;49.572;1.106;2024-01-30T06:37:05;392.33;;;262.80;;
74959;SDS011;63518;49.572;1.106;2024-01-30T06:39:32;399.73;;;268.70;;
74959;SDS011;63518;49.572;1.106;2024-01-30T06:41:59;381.00;;;251.45;;
74959;SDS011;63518;49.572;1.106;2024-01-30T06:44:25;351.13;;;237.00;;
74959;SDS011;63518;49.572;1.106;2024-01-30T06:46:54;372.90;;;250.95;;
74959;SDS011;63518;49.572;1.106;2024-01-30T06:49:20;354.08;;;238.00;;
74959;SDS011;63518;49.572;1.106;2024-01-30T06:51:48;361.83;;;241.93;;
74959;SDS011;63518;49.572;1.106;2024-01-30T06:54:15;362.40;;;241.75;;
74959;SDS011;63518;49.572;1.106;2024-01-30T06:56:42;385.50;;;256.73;;
74959;SDS011;63518;49.572;1.106;2024-01-30T06:59:08;384.13;;;255.48;;
74959;SDS011;63518;49.572;1.106;2024-01-30T07:01:35;359.52;;;241.65;;
74959;SDS011;63518;49.572;1.106;2024-01-30T07:04:02;360.13;;;239.27;;
74959;SDS011;63518;49.572;1.106;2024-01-30T07:06:29;370.60;;;248.75;;
74959;SDS011;63518;49.572;1.106;2024-01-30T07:08:55;374.25;;;248.70;;
74959;SDS011;63518;49.572;1.106;2024-01-30T07:11:22;366.10;;;242.75;;
74959;SDS011;63518;49.572;1.106;2024-01-30T07:13:50;412.77;;;268.67;;
74959;SDS011;63518;49.572;1.106;2024-01-30T07:16:17;379.48;;;251.13;;
74959;SDS011;63518;49.572;1.106;2024-01-30T07:18:44;374.65;;;250.82;;
74959;SDS011;63518;49.572;1.106;2024-01-30T07:21:11;382.25;;;252.05;;
74959;SDS011;63518;49.572;1.106;2024-01-30T07:23:38;423.73;;;277.90;;
74959;SDS011;63518;49.572;1.106;2024-01-30T07:26:05;456.20;;;301.77;;
74959;SDS011;63518;49.572;1.106;2024-01-30T07:28:33;421.63;;;275.33;;
74959;SDS011;63518;49.572;1.106;2024-01-30T07:31:00;461.00;;;310.17;;
74959;SDS011;63518;49.572;1.106;2024-01-30T07:33:27;473.08;;;314.00;;
74959;SDS011;63518;49.572;1.106;2024-01-30T07:35:54;447.05;;;299.80;;
74959;SDS011;63518;49.572;1.106;2024-01-30T07:38:21;442.83;;;298.65;;
74959;SDS011;63518;49.572;1.106;2024-01-30T07:40:48;488.60;;;327.73;;
74959;SDS011;63518;49.572;1.106;2024-01-30T07:43:14;486.17;;;321.98;;
74959;SDS011;63518;49.572;1.106;2024-01-30T07:45:41;482.00;;;323.92;;
74959;SDS011;63518;49.572;1.106;2024-01-30T07:48:08;488.77;;;325.83;;
74959;SDS011;63518;49.572;1.106;2024-01-30T07:50:35;454.55;;;303.63;;
74959;SDS011;63518;49.572;1.106;2024-01-30T07:53:02;426.50;;;291.70;;
74959;SDS011;63518;49.572;1.106;2024-01-30T07:55:29;423.80;;;288.08;;
74959;SDS011;63518;49.572;1.106;2024-01-30T07:57:57;414.52;;;282.13;;
74959;SDS011;63518;49.572;1.106;2024-01-30T08:00:25;441.98;;;304.90;;
74959;SDS011;63518;49.572;1.106;2024-01-30T08:02:52;429.48;;;295.30;;
74959;SDS011;63518;49.572;1.106;2024-01-30T08:05:22;421.80;;;289.08;;
74959;SDS011;63518;49.572;1.106;2024-01-30T08:07:50;414.30;;;283.80;;
74959;SDS011;63518;49.572;1.106;2024-01-30T08:10:17;430.23;;;290.17;;
74959;SDS011;63518;49.572;1.106;2024-01-30T08:12:47;419.55;;;286.98;;
74959;SDS011;63518;49.572;1.106;2024-01-30T08:15:14;425.13;;;298.27;;
74959;SDS011;63518;49.572;1.106;2024-01-30T08:17:41;389.05;;;269.63;;
74959;SDS011;63518;49.572;1.106;2024-01-30T08:20:08;380.55;;;258.95;;
74959;SDS011;63518;49.572;1.106;2024-01-30T08:22:38;396.20;;;267.13;;
74959;SDS011;63518;49.572;1.106;2024-01-30T08:25:06;386.65;;;259.38;;
74959;SDS011;63518;49.572;1.106;2024-01-30T08:27:34;384.98;;;258.52;;
74959;SDS011;63518;49.572;1.106;2024-01-30T08:30:02;386.45;;;259.67;;
74959;SDS011;63518;49.572;1.106;2024-01-30T08:32:29;353.70;;;237.90;;
74959;SDS011;63518;49.572;1.106;2024-01-30T08:34:56;350.92;;;237.38;;
74959;SDS011;63518;49.572;1.106;2024-01-30T08:37:24;368.33;;;247.30;;
74959;SDS011;63518;49.572;1.106;2024-01-30T08:39:50;396.83;;;270.30;;
74959;SDS011;63518;49.572;1.106;2024-01-30T08:42:17;390.88;;;265.35;;
74959;SDS011;63518;49.572;1.106;2024-01-30T08:44:49;385.20;;;258.25;;
74959;SDS011;63518;49.572;1.106;2024-01-30T08:47:17;369.70;;;251.45;;
74959;SDS011;63518;49.572;1.106;2024-01-30T08:49:45;400.90;;;272.13;;
74959;SDS011;63518;49.572;1.106;2024-01-30T08:52:12;381.90;;;258.67;;
74959;SDS011;63518;49.572;1.106;2024-01-30T08:54:39;371.38;;;250.55;;
74959;SDS011;63518;49.572;1.106;2024-01-30T08:57:05;351.52;;;232.30;;
74959;SDS011;63518;49.572;1.106;2024-01-30T08:59:32;373.27;;;250.90;;
74959;SDS011;63518;49.572;1.106;2024-01-30T09:02:00;407.73;;;268.85;;
74959;SDS011;63518;49.572;1.106;2024-01-30T09:04:38;354.63;;;233.95;;
74959;SDS011;63518;49.572;1.106;2024-01-30T09:07:05;389.10;;;260.20;;
74959;SDS011;63518;49.572;1.106;2024-01-30T09:09:37;374.48;;;251.20;;
74959;SDS011;63518;49.572;1.106;2024-01-30T09:12:05;406.42;;;273.27;;
74959;SDS011;63518;49.572;1.106;2024-01-30T09:14:35;401.33;;;265.75;;
74959;SDS011;63518;49.572;1.106;2024-01-30T09:17:03;409.45;;;271.20;;
74959;SDS011;63518;49.572;1.106;2024-01-30T09:19:30;420.45;;;288.25;;
74959;SDS011;63518;49.572;1.106;2024-01-30T09:21:57;406.75;;;272.90;;
74959;SDS011;63518;49.572;1.106;2024-01-30T09:24:25;385.90;;;264.63;;
74959;SDS011;63518;49.572;1.106;2024-01-30T09:26:53;411.42;;;279.10;;
74959;SDS011;63518;49.572;1.106;2024-01-30T09:29:20;403.95;;;272.85;;
74959;SDS011;63518;49.572;1.106;2024-01-30T09:31:48;417.08;;;283.30;;
74959;SDS011;63518;49.572;1.106;2024-01-30T09:34:15;392.15;;;263.35;;
74959;SDS011;63518;49.572;1.106;2024-01-30T09:36:42;455.98;;;306.40;;
74959;SDS011;63518;49.572;1.106;2024-01-30T09:39:09;427.50;;;286.15;;
74959;SDS011;63518;49.572;1.106;2024-01-30T09:41:39;461.88;;;312.90;;
74959;SDS011;63518;49.572;1.106;2024-01-30T09:44:18;424.02;;;286.70;;
74959;SDS011;63518;49.572;1.106;2024-01-30T09:46:47;455.80;;;307.00;;
74959;SDS011;63518;49.572;1.106;2024-01-30T09:49:14;456.70;;;310.73;;
74959;SDS011;63518;49.572;1.106;2024-01-30T09:51:45;473.70;;;321.05;;
74959;SDS011;63518;49.572;1.106;2024-01-30T09:54:13;494.88;;;344.88;;
74959;SDS011;63518;49.572;1.106;2024-01-30T09:56:41;504.48;;;354.85;;
74959;SDS011;63518;49.572;1.106;2024-01-30T09:59:09;508.70;;;351.95;;
74959;SDS011;63518;49.572;1.106;2024-01-30T10:01:36;503.48;;;348.70;;
74959;SDS011;63518;49.572;1.106;2024-01-30T10:04:04;502.13;;;351.25;;
74959;SDS011;63518;49.572;1.106;2024-01-30T10:06:31;486.67;;;333.35;;
74959;SDS011;63518;49.572;1.106;2024-01-30T10:08:58;480.73;;;330.30;;
74959;SDS011;63518;49.572;1.106;2024-01-30T10:11:25;504.83;;;353.98;;
74959;SDS011;63518;49.572;1.106;2024-01-30T10:13:51;495.35;;;342.67;;
74959;SDS011;63518;49.572;1.106;2024-01-30T10:16:18;433.00;;;297.60;;
74959;SDS011;63518;49.572;1.106;2024-01-30T10:18:45;449.40;;;303.40;;
74959;SDS011;63518;49.572;1.106;2024-01-30T10:21:12;394.40;;;260.63;;
74959;SDS011;63518;49.572;1.106;2024-01-30T10:23:39;445.42;;;294.00;;
74959;SDS011;63518;49.572;1.106;2024-01-30T10:26:07;431.02;;;274.40;;
74959;SDS011;63518;49.572;1.106;2024-01-30T10:28:34;428.65;;;273.52;;
74959;SDS011;63518;49.572;1.106;2024-01-30T10:31:01;423.70;;;267.67;;
74959;SDS011;63518;49.572;1.106;2024-01-30T10:33:32;408.30;;;262.15;;
74959;SDS011;63518;49.572;1.106;2024-01-30T10:36:03;387.42;;;257.08;;
74959;SDS011;63518;49.572;1.106;2024-01-30T10:38:31;392.83;;;260.77;;
74959;SDS011;63518;49.572;1.106;2024-01-30T10:40:59;403.88;;;269.92;;
74959;SDS011;63518;49.572;1.106;2024-01-30T10:43:31;413.77;;;273.42;;
74959;SDS011;63518;49.572;1.106;2024-01-30T10:46:06;426.80;;;284.73;;
74959;SDS011;63518;49.572;1.106;2024-01-30T10:48:42;424.63;;;279.20;;
74959;SDS011;63518;49.572;1.106;2024-01-30T10:51:11;442.77;;;296.23;;
74959;SDS011;63518;49.572;1.106;2024-01-30T10:53:39;451.35;;;304.98;;
74959;SDS011;63518;49.572;1.106;2024-01-30T10:56:07;463.17;;;304.80;;
74959;SDS011;63518;49.572;1.106;2024-01-30T10:58:35;456.02;;;309.00;;
74959;SDS011;63518;49.572;1.106;2024-01-30T11:01:02;474.98;;;321.40;;
74959;SDS011;63518;49.572;1.106;2024-01-30T11:03:29;490.58;;;330.45;;
74959;SDS011;63518;49.572;1.106;2024-01-30T11:05:59;489.88;;;329.95;;
74959;SDS011;63518;49.572;1.106;2024-01-30T11:08:26;486.42;;;332.42;;
74959;SDS011;63518;49.572;1.106;2024-01-30T11:10:58;478.90;;;326.27;;
74959;SDS011;63518;49.572;1.106;2024-01-30T11:13:29;447.98;;;295.83;;
74959;SDS011;63518;49.572;1.106;2024-01-30T11:16:00;473.20;;;318.30;;
74959;SDS011;63518;49.572;1.106;2024-01-30T11:18:31;469.65;;;316.95;;
74959;SDS011;63518;49.572;1.106;2024-01-30T11:20:59;494.15;;;337.55;;
74959;SDS011;63518;49.572;1.106;2024-01-30T11:23:28;460.90;;;296.48;;
74959;SDS011;63518;49.572;1.106;2024-01-30T11:25:56;443.13;;;277.75;;
74959;SDS011;63518;49.572;1.106;2024-01-30T11:28:24;488.92;;;321.67;;
74959;SDS011;63518;49.572;1.106;2024-01-30T11:30:51;486.90;;;318.58;;
74959;SDS011;63518;49.572;1.106;2024-01-30T11:33:36;475.80;;;312.73;;
74959;SDS011;63518;49.572;1.106;2024-01-30T11:36:03;500.25;;;336.50;;
74959;SDS011;63518;49.572;1.106;2024-01-30T11:41:00;502.83;;;349.88;;
74959;SDS011;63518;49.572;1.106;2024-01-30T11:43:29;480.55;;;318.42;;
74959;SDS011;63518;49.572;1.106;2024-01-30T11:45:55;495.90;;;330.88;;
74959;SDS011;63518;49.572;1.106;2024-01-30T11:48:22;497.58;;;338.50;;
74959;SDS011;63518;49.572;1.106;2024-01-30T11:50:49;491.63;;;332.75;;
74959;SDS011;63518;49.572;1.106;2024-01-30T11:53:18;433.30;;;285.35;;
74959;SDS011;63518;49.572;1.106;2024-01-30T11:55:49;467.00;;;315.20;;
74959;SDS011;63518;49.572;1.106;2024-01-30T11:58:17;481.02;;;325.60;;
74959;SDS011;63518;49.572;1.106;2024-01-30T12:00:52;499.63;;;339.23;;
74959;SDS011;63518;49.572;1.106;2024-01-30T12:03:23;508.67;;;346.27;;
74959;SDS011;63518;49.572;1.106;2024-01-30T12:05:57;507.08;;;353.65;;
74959;SDS011;63518;49.572;1.106;2024-01-30T12:08:26;482.75;;;322.77;;
74959;SDS011;63518;49.572;1.106;2024-01-30T12:10:58;496.05;;;329.98;;
74959;SDS011;63518;49.572;1.106;2024-01-30T12:13:25;503.63;;;342.80;;
74959;SDS011;63518;49.572;1.106;2024-01-30T12:15:58;506.65;;;351.95;;
74959;SDS011;63518;49.572;1.106;2024-01-30T12:18:26;517.50;;;357.30;;
74959;SDS011;63518;49.572;1.106;2024-01-30T12:20:57;498.13;;;344.75;;
74959;SDS011;63518;49.572;1.106;2024-01-30T12:23:26;500.20;;;338.95;;
74959;SDS011;63518;49.572;1.106;2024-01-30T12:25:54;514.28;;;355.42;;
74959;SDS011;63518;49.572;1.106;2024-01-30T12:28:21;508.63;;;353.58;;
74959;SDS011;63518;49.572;1.106;2024-01-30T12:30:48;507.00;;;348.67;;
74959;SDS011;63518;49.572;1.106;2024-01-30T12:33:18;503.42;;;342.15;;
74959;SDS011;63518;49.572;1.106;2024-01-30T12:35:47;483.45;;;321.85;;
74959;SDS011;63518;49.572;1.106;2024-01-30T12:38:28;463.83;;;304.63;;
74959;SDS011;63518;49.572;1.106;2024-01-30T12:40:55;482.60;;;322.77;;
74959;SDS011;63518;49.572;1.106;2024-01-30T12:43:23;490.75;;;329.65;;
74959;SDS011;63518;49.572;1.106;2024-01-30T12:46:03;507.83;;;347.52;;
74959;SDS011;63518;49.572;1.106;2024-01-30T12:48:30;481.20;;;316.23;;
74959;SDS011;63518;49.572;1.106;2024-01-30T12:50:58;492.95;;;323.90;;
74959;SDS011;63518;49.572;1.106;2024-01-30T12:53:25;496.17;;;332.70;;
74959;SDS011;63518;49.572;1.106;2024-01-30T12:55:52;468.23;;;302.13;;
74959;SDS011;63518;49.572;1.106;2024-01-30T12:58:20;493.88;;;327.02;;
74959;SDS011;63518;49.572;1.106;2024-01-30T13:00:47;492.15;;;325.08;;
74959;SDS011;63518;49.572;1.106;2024-01-30T13:03:14;494.10;;;330.08;;
74959;SDS011;63518;49.572;1.106;2024-01-30T13:05:41;511.83;;;352.38;;
74959;SDS011;63518;49.572;1.106;2024-01-30T13:08:08;497.00;;;333.13;;
74959;SDS011;63518;49.572;1.106;2024-01-30T13:10:35;499.48;;;329.92;;
74959;SDS011;63518;49.572;1.106;2024-01-30T13:13:02;447.02;;;295.92;;
74959;SDS011;63518;49.572;1.106;2024-01-30T13:15:29;515.08;;;358.25;;
74959;SDS011;63518;49.572;1.106;2024-01-30T13:17:56;504.05;;;346.98;;
74959;SDS011;63518;49.572;1.106;2024-01-30T13:20:22;488.88;;;327.63;;
74959;SDS011;63518;49.572;1.106;2024-01-30T13:22:49;512.65;;;359.55;;
74959;SDS011;63518;49.572;1.106;2024-01-30T13:25:16;512.67;;;354.10;;
74959;SDS011;63518;49.572;1.106;2024-01-30T13:27:43;497.55;;;340.95;;
74959;SDS011;63518;49.572;1.106;2024-01-30T13:30:10;510.73;;;353.00;;
74959;SDS011;63518;49.572;1.106;2024-01-30T13:32:38;507.35;;;349.90;;
74959;SDS011;63518;49.572;1.106;2024-01-30T13:35:07;503.73;;;351.70;;
74959;SDS011;63518;49.572;1.106;2024-01-30T13:37:34;511.50;;;354.77;;
74959;SDS011;63518;49.572;1.106;2024-01-30T13:40:03;508.27;;;354.08;;
74959;SDS011;63518;49.572;1.106;2024-01-30T13:42:39;497.20;;;341.60;;
74959;SDS011;63518;49.572;1.106;2024-01-30T13:45:06;483.15;;;318.27;;
74959;SDS011;63518;49.572;1.106;2024-01-30T13:47:36;508.10;;;347.13;;
74959;SDS011;63518;49.572;1.106;2024-01-30T13:50:03;508.52;;;354.17;;
74959;SDS011;63518;49.572;1.106;2024-01-30T13:52:32;496.63;;;344.10;;
74959;SDS011;63518;49.572;1.106;2024-01-30T13:55:09;497.75;;;349.65;;
74959;SDS011;63518;49.572;1.106;2024-01-30T13:57:36;486.88;;;333.73;;
74959;SDS011;63518;49.572;1.106;2024-01-30T14:00:03;434.95;;;283.83;;
74959;SDS011;63518;49.572;1.106;2024-01-30T14:02:34;494.15;;;340.52;;